sensor_id;sensor_type;location;lat;lon;timestamp;temperature;humidity
19941;DHT22;10132;50.864;5.176;2022-12-07T00:01:20;5.50;99.90
19941;DHT22;10132;50.864;5.176;2022-12-07T00:03:22;5.70;99.90
19941;DHT22;10132;50.864;5.176;2022-12-07T00:05:24;5.50;99.90
19941;DHT22;10132;50.864;5.176;2022-12-07T00:07:26;5.30;99.90
19941;DHT22;10132;50.864;5.176;2022-12-07T00:09:28;5.20;99.90
19941;DHT22;10132;50.864;5.176;2022-12-07T00:11:30;5.30;99.90
19941;DHT22;10132;50.864;5.176;2022-12-07T00:13:34;5.40;99.90
19941;DHT22;10132;50.864;5.176;2022-12-07T00:15:36;5.30;99.90
19941;DHT22;10132;50.864;5.176;2022-12-07T00:17:38;5.30;99.90
19941;DHT22;10132;50.864;5.176;2022-12-07T00:19:40;5.30;99.90
19941;DHT22;10132;50.864;5.176;2022-12-07T00:21:42;5.30;99.90
19941;DHT22;10132;50.864;5.176;2022-12-07T00:23:46;5.30;99.90
19941;DHT22;10132;50.864;5.176;2022-12-07T00:25:48;5.30;99.90
19941;DHT22;10132;50.864;5.176;2022-12-07T00:27:50;5.20;99.90
19941;DHT22;10132;50.864;5.176;2022-12-07T00:29:53;5.20;99.90
19941;DHT22;10132;50.864;5.176;2022-12-07T00:31:55;5.20;99.90
19941;DHT22;10132;50.864;5.176;2022-12-07T00:33:57;5.20;99.90
19941;DHT22;10132;50.864;5.176;2022-12-07T00:35:59;5.10;99.90
19941;DHT22;10132;50.864;5.176;2022-12-07T00:38:02;5.20;99.90
19941;DHT22;10132;50.864;5.176;2022-12-07T00:40:05;5.20;99.90
19941;DHT22;10132;50.864;5.176;2022-12-07T00:42:07;5.20;99.90
19941;DHT22;10132;50.864;5.176;2022-12-07T00:44:09;5.20;99.90
19941;DHT22;10132;50.864;5.176;2022-12-07T00:46:13;5.30;99.90
19941;DHT22;10132;50.864;5.176;2022-12-07T00:48:15;5.20;99.90
19941;DHT22;10132;50.864;5.176;2022-12-07T00:50:17;5.20;99.90
19941;DHT22;10132;50.864;5.176;2022-12-07T00:52:19;5.30;99.90
19941;DHT22;10132;50.864;5.176;2022-12-07T00:54:21;5.40;99.90
19941;DHT22;10132;50.864;5.176;2022-12-07T00:56:24;5.50;99.90
19941;DHT22;10132;50.864;5.176;2022-12-07T00:58:26;5.60;99.90
19941;DHT22;10132;50.864;5.176;2022-12-07T01:00:28;5.60;99.90
19941;DHT22;10132;50.864;5.176;2022-12-07T01:02:32;5.70;99.90
19941;DHT22;10132;50.864;5.176;2022-12-07T01:04:34;5.60;99.90
19941;DHT22;10132;50.864;5.176;2022-12-07T01:06:36;5.50;99.90
19941;DHT22;10132;50.864;5.176;2022-12-07T01:08:38;5.40;99.90
19941;DHT22;10132;50.864;5.176;2022-12-07T01:10:40;5.40;99.90
19941;DHT22;10132;50.864;5.176;2022-12-07T01:12:42;5.40;99.90
19941;DHT22;10132;50.864;5.176;2022-12-07T01:14:44;5.30;99.90
19941;DHT22;10132;50.864;5.176;2022-12-07T01:16:45;5.20;99.90
19941;DHT22;10132;50.864;5.176;2022-12-07T01:18:51;5.30;99.90
19941;DHT22;10132;50.864;5.176;2022-12-07T01:21:01;5.30;99.90
19941;DHT22;10132;50.864;5.176;2022-12-07T01:23:03;5.30;99.90
19941;DHT22;10132;50.864;5.176;2022-12-07T01:25:06;5.40;99.90
19941;DHT22;10132;50.864;5.176;2022-12-07T01:27:08;5.40;99.90
19941;DHT22;10132;50.864;5.176;2022-12-07T01:29:10;5.30;99.90
19941;DHT22;10132;50.864;5.176;2022-12-07T01:31:14;5.30;99.90
19941;DHT22;10132;50.864;5.176;2022-12-07T01:33:16;5.20;99.90
19941;DHT22;10132;50.864;5.176;2022-12-07T01:35:20;5.30;99.90
19941;DHT22;10132;50.864;5.176;2022-12-07T01:37:21;5.40;99.90
19941;DHT22;10132;50.864;5.176;2022-12-07T01:39:23;5.50;99.90
19941;DHT22;10132;50.864;5.176;2022-12-07T01:41:27;5.60;99.90
19941;DHT22;10132;50.864;5.176;2022-12-07T01:43:30;5.50;99.90
19941;DHT22;10132;50.864;5.176;2022-12-07T01:45:40;5.40;99.90
19941;DHT22;10132;50.864;5.176;2022-12-07T01:47:45;5.40;99.90
19941;DHT22;10132;50.864;5.176;2022-12-07T01:49:49;5.50;99.90
19941;DHT22;10132;50.864;5.176;2022-12-07T01:51:56;5.40;99.90
19941;DHT22;10132;50.864;5.176;2022-12-07T01:54:01;5.30;99.90
19941;DHT22;10132;50.864;5.176;2022-12-07T01:56:03;5.30;99.90
19941;DHT22;10132;50.864;5.176;2022-12-07T01:58:06;5.30;99.90
19941;DHT22;10132;50.864;5.176;2022-12-07T02:00:09;5.40;99.90
19941;DHT22;10132;50.864;5.176;2022-12-07T02:02:16;5.40;99.90
19941;DHT22;10132;50.864;5.176;2022-12-07T02:04:20;5.30;99.90
19941;DHT22;10132;50.864;5.176;2022-12-07T02:06:25;5.20;99.90
19941;DHT22;10132;50.864;5.176;2022-12-07T02:08:28;5.20;99.90
19941;DHT22;10132;50.864;5.176;2022-12-07T02:10:31;5.30;99.90
19941;DHT22;10132;50.864;5.176;2022-12-07T02:12:33;5.20;99.90
19941;DHT22;10132;50.864;5.176;2022-12-07T02:14:35;5.20;99.90
19941;DHT22;10132;50.864;5.176;2022-12-07T02:16:47;5.10;99.90
19941;DHT22;10132;50.864;5.176;2022-12-07T02:18:58;5.00;99.90
19941;DHT22;10132;50.864;5.176;2022-12-07T02:21:07;5.10;99.90
19941;DHT22;10132;50.864;5.176;2022-12-07T02:23:53;5.00;99.90
19941;DHT22;10132;50.864;5.176;2022-12-07T02:29:09;4.90;99.90
19941;DHT22;10132;50.864;5.176;2022-12-07T02:31:16;4.90;99.90
19941;DHT22;10132;50.864;5.176;2022-12-07T02:33:31;4.90;99.90
19941;DHT22;10132;50.864;5.176;2022-12-07T02:35:39;5.00;99.90
19941;DHT22;10132;50.864;5.176;2022-12-07T02:37:48;4.90;99.90
19941;DHT22;10132;50.864;5.176;2022-12-07T02:39:54;5.00;99.90
19941;DHT22;10132;50.864;5.176;2022-12-07T02:42:00;4.90;99.90
19941;DHT22;10132;50.864;5.176;2022-12-07T02:44:07;4.90;99.90
19941;DHT22;10132;50.864;5.176;2022-12-07T02:46:13;4.80;99.90
19941;DHT22;10132;50.864;5.176;2022-12-07T02:48:17;4.90;99.90
19941;DHT22;10132;50.864;5.176;2022-12-07T02:50:20;4.90;99.90
19941;DHT22;10132;50.864;5.176;2022-12-07T02:52:23;4.90;99.90
19941;DHT22;10132;50.864;5.176;2022-12-07T02:54:24;5.00;99.90
19941;DHT22;10132;50.864;5.176;2022-12-07T02:56:33;5.10;99.90
19941;DHT22;10132;50.864;5.176;2022-12-07T02:58:46;5.10;99.90
19941;DHT22;10132;50.864;5.176;2022-12-07T03:00:56;5.10;99.90
19941;DHT22;10132;50.864;5.176;2022-12-07T03:03:06;5.20;99.90
19941;DHT22;10132;50.864;5.176;2022-12-07T03:05:27;5.10;99.90
19941;DHT22;10132;50.864;5.176;2022-12-07T03:07:37;5.20;99.90
19941;DHT22;10132;50.864;5.176;2022-12-07T03:09:47;5.20;99.90
19941;DHT22;10132;50.864;5.176;2022-12-07T03:11:58;5.20;99.90
19941;DHT22;10132;50.864;5.176;2022-12-07T03:14:09;5.20;99.90
19941;DHT22;10132;50.864;5.176;2022-12-07T03:16:16;5.30;99.90
19941;DHT22;10132;50.864;5.176;2022-12-07T03:18:22;5.20;99.90
19941;DHT22;10132;50.864;5.176;2022-12-07T03:20:27;5.20;99.90
19941;DHT22;10132;50.864;5.176;2022-12-07T03:22:32;5.20;99.90
19941;DHT22;10132;50.864;5.176;2022-12-07T03:24:40;5.30;99.90
19941;DHT22;10132;50.864;5.176;2022-12-07T03:26:49;5.30;99.90
19941;DHT22;10132;50.864;5.176;2022-12-07T03:28:55;5.30;99.90
19941;DHT22;10132;50.864;5.176;2022-12-07T03:31:02;5.30;99.90
19941;DHT22;10132;50.864;5.176;2022-12-07T03:33:08;5.40;99.90
19941;DHT22;10132;50.864;5.176;2022-12-07T03:35:15;5.30;99.90
19941;DHT22;10132;50.864;5.176;2022-12-07T03:37:22;5.20;99.90
19941;DHT22;10132;50.864;5.176;2022-12-07T03:39:30;5.00;99.90
19941;DHT22;10132;50.864;5.176;2022-12-07T03:41:37;4.90;99.90
19941;DHT22;10132;50.864;5.176;2022-12-07T03:43:40;4.90;99.90
19941;DHT22;10132;50.864;5.176;2022-12-07T03:45:44;5.00;99.90
19941;DHT22;10132;50.864;5.176;2022-12-07T03:47:54;5.10;99.90
19941;DHT22;10132;50.864;5.176;2022-12-07T03:50:02;5.00;99.90
19941;DHT22;10132;50.864;5.176;2022-12-07T03:52:16;4.90;99.90
19941;DHT22;10132;50.864;5.176;2022-12-07T03:54:23;5.00;99.90
19941;DHT22;10132;50.864;5.176;2022-12-07T03:56:27;5.10;99.90
19941;DHT22;10132;50.864;5.176;2022-12-07T03:58:30;5.10;99.90
19941;DHT22;10132;50.864;5.176;2022-12-07T04:00:33;5.10;99.90
19941;DHT22;10132;50.864;5.176;2022-12-07T04:02:35;5.10;99.90
19941;DHT22;10132;50.864;5.176;2022-12-07T04:04:37;5.10;99.90
19941;DHT22;10132;50.864;5.176;2022-12-07T04:06:39;5.20;99.90
19941;DHT22;10132;50.864;5.176;2022-12-07T04:08:42;5.30;99.90
19941;DHT22;10132;50.864;5.176;2022-12-07T04:10:44;5.20;99.90
19941;DHT22;10132;50.864;5.176;2022-12-07T04:12:46;5.00;99.90
19941;DHT22;10132;50.864;5.176;2022-12-07T04:14:48;5.00;99.90
19941;DHT22;10132;50.864;5.176;2022-12-07T04:16:52;4.80;99.90
19941;DHT22;10132;50.864;5.176;2022-12-07T04:18:54;4.90;99.90
19941;DHT22;10132;50.864;5.176;2022-12-07T04:20:56;4.80;99.90
19941;DHT22;10132;50.864;5.176;2022-12-07T04:22:58;4.80;99.90
19941;DHT22;10132;50.864;5.176;2022-12-07T04:25:01;4.80;99.90
19941;DHT22;10132;50.864;5.176;2022-12-07T04:27:03;4.80;99.90
19941;DHT22;10132;50.864;5.176;2022-12-07T04:29:05;4.80;99.90
19941;DHT22;10132;50.864;5.176;2022-12-07T04:31:07;4.70;99.90
19941;DHT22;10132;50.864;5.176;2022-12-07T04:33:09;4.60;99.90
19941;DHT22;10132;50.864;5.176;2022-12-07T04:35:11;4.50;99.90
19941;DHT22;10132;50.864;5.176;2022-12-07T04:37:13;4.50;99.90
19941;DHT22;10132;50.864;5.176;2022-12-07T04:39:19;4.40;99.90
19941;DHT22;10132;50.864;5.176;2022-12-07T04:41:23;4.50;99.90
19941;DHT22;10132;50.864;5.176;2022-12-07T04:43:28;4.50;99.90
19941;DHT22;10132;50.864;5.176;2022-12-07T04:45:30;4.40;99.90
19941;DHT22;10132;50.864;5.176;2022-12-07T04:47:32;4.30;99.90
19941;DHT22;10132;50.864;5.176;2022-12-07T04:49:34;4.40;99.90
19941;DHT22;10132;50.864;5.176;2022-12-07T04:51:36;4.40;99.90
19941;DHT22;10132;50.864;5.176;2022-12-07T04:53:39;4.40;99.90
19941;DHT22;10132;50.864;5.176;2022-12-07T04:55:40;4.40;99.90
19941;DHT22;10132;50.864;5.176;2022-12-07T04:57:44;4.50;99.90
19941;DHT22;10132;50.864;5.176;2022-12-07T04:59:46;4.50;99.90
19941;DHT22;10132;50.864;5.176;2022-12-07T05:01:48;4.40;99.90
19941;DHT22;10132;50.864;5.176;2022-12-07T05:03:50;4.50;99.90
19941;DHT22;10132;50.864;5.176;2022-12-07T05:05:52;4.50;99.90
19941;DHT22;10132;50.864;5.176;2022-12-07T05:07:54;4.50;99.90
19941;DHT22;10132;50.864;5.176;2022-12-07T05:09:56;4.40;99.90
19941;DHT22;10132;50.864;5.176;2022-12-07T05:11:59;4.40;99.90
19941;DHT22;10132;50.864;5.176;2022-12-07T05:14:03;4.30;99.90
19941;DHT22;10132;50.864;5.176;2022-12-07T05:16:05;4.20;99.90
19941;DHT22;10132;50.864;5.176;2022-12-07T05:18:07;4.20;99.90
19941;DHT22;10132;50.864;5.176;2022-12-07T05:20:10;4.20;99.90
19941;DHT22;10132;50.864;5.176;2022-12-07T05:22:12;4.20;99.90
19941;DHT22;10132;50.864;5.176;2022-12-07T05:24:16;4.10;99.90
19941;DHT22;10132;50.864;5.176;2022-12-07T05:26:18;4.10;99.90
19941;DHT22;10132;50.864;5.176;2022-12-07T05:28:20;4.10;99.90
19941;DHT22;10132;50.864;5.176;2022-12-07T05:30:23;4.10;99.90
19941;DHT22;10132;50.864;5.176;2022-12-07T05:32:25;4.10;99.90
19941;DHT22;10132;50.864;5.176;2022-12-07T05:34:27;4.00;99.90
19941;DHT22;10132;50.864;5.176;2022-12-07T05:36:29;4.10;99.90
19941;DHT22;10132;50.864;5.176;2022-12-07T05:38:32;4.10;99.90
19941;DHT22;10132;50.864;5.176;2022-12-07T05:40:35;4.30;99.90
19941;DHT22;10132;50.864;5.176;2022-12-07T05:42:38;4.40;99.90
19941;DHT22;10132;50.864;5.176;2022-12-07T05:44:39;4.40;99.90
19941;DHT22;10132;50.864;5.176;2022-12-07T05:46:42;4.40;99.90
19941;DHT22;10132;50.864;5.176;2022-12-07T05:48:44;4.50;99.90
19941;DHT22;10132;50.864;5.176;2022-12-07T05:50:47;4.50;99.90
19941;DHT22;10132;50.864;5.176;2022-12-07T05:52:49;4.60;99.90
19941;DHT22;10132;50.864;5.176;2022-12-07T05:54:51;4.60;99.90
19941;DHT22;10132;50.864;5.176;2022-12-07T05:56:53;4.60;99.90
19941;DHT22;10132;50.864;5.176;2022-12-07T05:58:55;4.50;99.90
19941;DHT22;10132;50.864;5.176;2022-12-07T06:01:14;4.30;99.90
19941;DHT22;10132;50.864;5.176;2022-12-07T06:03:18;4.30;99.90
19941;DHT22;10132;50.864;5.176;2022-12-07T06:05:20;4.30;99.90
19941;DHT22;10132;50.864;5.176;2022-12-07T06:07:22;4.40;99.90
19941;DHT22;10132;50.864;5.176;2022-12-07T06:09:25;4.50;99.90
19941;DHT22;10132;50.864;5.176;2022-12-07T06:11:27;4.40;99.90
19941;DHT22;10132;50.864;5.176;2022-12-07T06:13:46;4.40;99.90
19941;DHT22;10132;50.864;5.176;2022-12-07T06:15:48;4.40;99.90
19941;DHT22;10132;50.864;5.176;2022-12-07T06:17:50;4.30;99.90
19941;DHT22;10132;50.864;5.176;2022-12-07T06:19:53;4.20;99.90
19941;DHT22;10132;50.864;5.176;2022-12-07T06:21:56;4.10;99.90
19941;DHT22;10132;50.864;5.176;2022-12-07T06:23:58;4.20;99.90
19941;DHT22;10132;50.864;5.176;2022-12-07T06:26:00;4.30;99.90
19941;DHT22;10132;50.864;5.176;2022-12-07T06:28:02;4.40;99.90
19941;DHT22;10132;50.864;5.176;2022-12-07T06:30:05;4.50;99.90
19941;DHT22;10132;50.864;5.176;2022-12-07T06:32:09;4.50;99.90
19941;DHT22;10132;50.864;5.176;2022-12-07T06:34:13;4.60;99.90
19941;DHT22;10132;50.864;5.176;2022-12-07T06:36:17;4.60;99.90
19941;DHT22;10132;50.864;5.176;2022-12-07T06:38:19;4.60;99.90
19941;DHT22;10132;50.864;5.176;2022-12-07T06:40:21;4.60;99.90
19941;DHT22;10132;50.864;5.176;2022-12-07T06:42:23;4.70;99.90
19941;DHT22;10132;50.864;5.176;2022-12-07T06:44:25;4.70;99.90
19941;DHT22;10132;50.864;5.176;2022-12-07T06:46:27;4.80;99.90
19941;DHT22;10132;50.864;5.176;2022-12-07T06:48:29;4.70;99.90
19941;DHT22;10132;50.864;5.176;2022-12-07T06:50:31;4.70;99.90
19941;DHT22;10132;50.864;5.176;2022-12-07T06:52:34;4.80;99.90
19941;DHT22;10132;50.864;5.176;2022-12-07T06:54:36;4.80;99.90
19941;DHT22;10132;50.864;5.176;2022-12-07T06:56:38;4.80;99.90
19941;DHT22;10132;50.864;5.176;2022-12-07T06:58:41;4.80;99.90
19941;DHT22;10132;50.864;5.176;2022-12-07T07:00:43;4.70;99.90
19941;DHT22;10132;50.864;5.176;2022-12-07T07:02:45;4.60;99.90
19941;DHT22;10132;50.864;5.176;2022-12-07T07:04:46;4.50;99.90
19941;DHT22;10132;50.864;5.176;2022-12-07T07:06:48;4.40;99.90
19941;DHT22;10132;50.864;5.176;2022-12-07T07:08:52;4.40;99.90
19941;DHT22;10132;50.864;5.176;2022-12-07T07:10:54;4.40;99.90
19941;DHT22;10132;50.864;5.176;2022-12-07T07:12:56;4.40;99.90
19941;DHT22;10132;50.864;5.176;2022-12-07T07:14:58;4.20;99.90
19941;DHT22;10132;50.864;5.176;2022-12-07T07:17:00;4.20;99.90
19941;DHT22;10132;50.864;5.176;2022-12-07T07:19:02;4.20;99.90
19941;DHT22;10132;50.864;5.176;2022-12-07T07:21:04;4.40;99.90
19941;DHT22;10132;50.864;5.176;2022-12-07T07:23:06;4.40;99.90
19941;DHT22;10132;50.864;5.176;2022-12-07T07:25:10;4.30;99.90
19941;DHT22;10132;50.864;5.176;2022-12-07T07:27:12;4.30;99.90
19941;DHT22;10132;50.864;5.176;2022-12-07T07:29:14;4.50;99.90
19941;DHT22;10132;50.864;5.176;2022-12-07T07:31:16;4.40;99.90
19941;DHT22;10132;50.864;5.176;2022-12-07T07:33:18;4.30;99.90
19941;DHT22;10132;50.864;5.176;2022-12-07T07:35:20;4.20;99.90
19941;DHT22;10132;50.864;5.176;2022-12-07T07:37:22;4.10;99.90
19941;DHT22;10132;50.864;5.176;2022-12-07T07:39:24;4.20;99.90
19941;DHT22;10132;50.864;5.176;2022-12-07T07:41:27;4.10;99.90
19941;DHT22;10132;50.864;5.176;2022-12-07T07:43:29;4.10;99.90
19941;DHT22;10132;50.864;5.176;2022-12-07T07:45:31;4.10;99.90
19941;DHT22;10132;50.864;5.176;2022-12-07T07:47:33;4.00;99.90
19941;DHT22;10132;50.864;5.176;2022-12-07T07:49:35;4.10;99.90
19941;DHT22;10132;50.864;5.176;2022-12-07T07:51:37;4.20;99.90
19941;DHT22;10132;50.864;5.176;2022-12-07T07:53:39;4.20;99.90
19941;DHT22;10132;50.864;5.176;2022-12-07T07:55:41;4.20;99.90
19941;DHT22;10132;50.864;5.176;2022-12-07T07:57:44;4.20;99.90
19941;DHT22;10132;50.864;5.176;2022-12-07T07:59:46;4.20;99.90
19941;DHT22;10132;50.864;5.176;2022-12-07T08:01:48;4.10;99.90
19941;DHT22;10132;50.864;5.176;2022-12-07T08:03:50;4.20;99.90
19941;DHT22;10132;50.864;5.176;2022-12-07T08:05:52;4.20;99.90
19941;DHT22;10132;50.864;5.176;2022-12-07T08:07:54;4.10;99.90
19941;DHT22;10132;50.864;5.176;2022-12-07T08:09:56;4.00;99.90
19941;DHT22;10132;50.864;5.176;2022-12-07T08:11:58;4.10;99.90
19941;DHT22;10132;50.864;5.176;2022-12-07T08:14:01;4.10;99.90
19941;DHT22;10132;50.864;5.176;2022-12-07T08:16:04;4.10;99.90
19941;DHT22;10132;50.864;5.176;2022-12-07T08:18:06;4.20;99.90
19941;DHT22;10132;50.864;5.176;2022-12-07T08:20:09;4.10;99.90
19941;DHT22;10132;50.864;5.176;2022-12-07T08:22:11;4.20;99.90
19941;DHT22;10132;50.864;5.176;2022-12-07T08:24:13;4.40;99.90
19941;DHT22;10132;50.864;5.176;2022-12-07T08:26:16;4.40;99.90
19941;DHT22;10132;50.864;5.176;2022-12-07T08:28:18;4.40;99.90
19941;DHT22;10132;50.864;5.176;2022-12-07T08:30:21;4.50;99.90
19941;DHT22;10132;50.864;5.176;2022-12-07T08:32:24;4.50;99.90
19941;DHT22;10132;50.864;5.176;2022-12-07T08:34:25;4.50;99.90
19941;DHT22;10132;50.864;5.176;2022-12-07T08:36:28;4.60;99.90
19941;DHT22;10132;50.864;5.176;2022-12-07T08:38:30;4.70;99.90
19941;DHT22;10132;50.864;5.176;2022-12-07T08:40:32;4.70;99.90
19941;DHT22;10132;50.864;5.176;2022-12-07T08:42:34;4.70;99.90
19941;DHT22;10132;50.864;5.176;2022-12-07T08:44:40;4.80;99.90
19941;DHT22;10132;50.864;5.176;2022-12-07T08:46:46;4.90;99.90
19941;DHT22;10132;50.864;5.176;2022-12-07T08:48:52;4.90;99.90
19941;DHT22;10132;50.864;5.176;2022-12-07T08:50:54;5.00;99.90
19941;DHT22;10132;50.864;5.176;2022-12-07T08:52:58;5.00;99.90
19941;DHT22;10132;50.864;5.176;2022-12-07T08:55:00;5.10;99.90
19941;DHT22;10132;50.864;5.176;2022-12-07T08:57:04;5.10;99.90
19941;DHT22;10132;50.864;5.176;2022-12-07T08:59:07;4.90;99.90
19941;DHT22;10132;50.864;5.176;2022-12-07T09:01:09;5.00;99.90
19941;DHT22;10132;50.864;5.176;2022-12-07T09:03:12;5.20;99.90
19941;DHT22;10132;50.864;5.176;2022-12-07T09:05:14;5.20;99.90
19941;DHT22;10132;50.864;5.176;2022-12-07T09:07:16;5.40;99.90
19941;DHT22;10132;50.864;5.176;2022-12-07T09:09:18;5.70;99.90
19941;DHT22;10132;50.864;5.176;2022-12-07T09:11:20;5.50;99.90
19941;DHT22;10132;50.864;5.176;2022-12-07T09:13:22;5.80;99.90
19941;DHT22;10132;50.864;5.176;2022-12-07T09:15:24;6.10;99.90
19941;DHT22;10132;50.864;5.176;2022-12-07T09:17:27;6.30;99.90
19941;DHT22;10132;50.864;5.176;2022-12-07T09:19:30;6.80;99.90
19941;DHT22;10132;50.864;5.176;2022-12-07T09:21:32;7.00;99.90
19941;DHT22;10132;50.864;5.176;2022-12-07T09:23:34;7.20;99.90
19941;DHT22;10132;50.864;5.176;2022-12-07T09:25:36;7.10;99.90
19941;DHT22;10132;50.864;5.176;2022-12-07T09:27:38;7.20;99.90
19941;DHT22;10132;50.864;5.176;2022-12-07T09:29:40;7.30;99.90
19941;DHT22;10132;50.864;5.176;2022-12-07T09:31:42;7.00;99.90
19941;DHT22;10132;50.864;5.176;2022-12-07T09:33:44;6.70;99.90
19941;DHT22;10132;50.864;5.176;2022-12-07T09:35:48;6.40;99.90
19941;DHT22;10132;50.864;5.176;2022-12-07T09:37:50;6.30;99.90
19941;DHT22;10132;50.864;5.176;2022-12-07T09:39:52;6.20;99.90
19941;DHT22;10132;50.864;5.176;2022-12-07T09:41:54;6.10;99.90
19941;DHT22;10132;50.864;5.176;2022-12-07T09:44:02;6.20;99.90
19941;DHT22;10132;50.864;5.176;2022-12-07T09:46:05;6.30;99.90
19941;DHT22;10132;50.864;5.176;2022-12-07T09:48:14;6.40;99.90
19941;DHT22;10132;50.864;5.176;2022-12-07T09:50:21;6.50;99.90
19941;DHT22;10132;50.864;5.176;2022-12-07T09:52:27;6.30;99.90
19941;DHT22;10132;50.864;5.176;2022-12-07T09:54:30;6.30;99.90
19941;DHT22;10132;50.864;5.176;2022-12-07T09:56:33;6.20;99.90
19941;DHT22;10132;50.864;5.176;2022-12-07T09:58:35;6.10;99.90
19941;DHT22;10132;50.864;5.176;2022-12-07T10:00:37;6.10;99.90
19941;DHT22;10132;50.864;5.176;2022-12-07T10:02:40;6.00;99.90
19941;DHT22;10132;50.864;5.176;2022-12-07T10:04:44;5.80;99.90
19941;DHT22;10132;50.864;5.176;2022-12-07T10:06:46;5.60;99.90
19941;DHT22;10132;50.864;5.176;2022-12-07T10:08:50;5.70;99.90
19941;DHT22;10132;50.864;5.176;2022-12-07T10:10:54;5.70;99.90
19941;DHT22;10132;50.864;5.176;2022-12-07T10:12:59;6.10;99.90
19941;DHT22;10132;50.864;5.176;2022-12-07T10:15:03;6.40;99.90
19941;DHT22;10132;50.864;5.176;2022-12-07T10:17:28;6.90;99.90
19941;DHT22;10132;50.864;5.176;2022-12-07T10:19:32;7.30;99.90
19941;DHT22;10132;50.864;5.176;2022-12-07T10:21:34;7.40;99.90
19941;DHT22;10132;50.864;5.176;2022-12-07T10:23:37;7.10;99.90
19941;DHT22;10132;50.864;5.176;2022-12-07T10:25:41;7.20;99.90
19941;DHT22;10132;50.864;5.176;2022-12-07T10:27:43;7.10;99.90
19941;DHT22;10132;50.864;5.176;2022-12-07T10:29:48;6.90;99.90
19941;DHT22;10132;50.864;5.176;2022-12-07T10:31:54;6.90;99.90
19941;DHT22;10132;50.864;5.176;2022-12-07T10:33:59;6.90;99.90
19941;DHT22;10132;50.864;5.176;2022-12-07T10:36:16;6.90;99.90
19941;DHT22;10132;50.864;5.176;2022-12-07T10:38:18;6.80;99.90
19941;DHT22;10132;50.864;5.176;2022-12-07T10:40:30;6.80;99.90
19941;DHT22;10132;50.864;5.176;2022-12-07T10:42:33;7.20;99.90
19941;DHT22;10132;50.864;5.176;2022-12-07T10:44:35;7.50;99.90
19941;DHT22;10132;50.864;5.176;2022-12-07T10:47:01;7.70;99.90
19941;DHT22;10132;50.864;5.176;2022-12-07T10:49:22;7.60;99.90
19941;DHT22;10132;50.864;5.176;2022-12-07T10:51:33;7.30;99.90
19941;DHT22;10132;50.864;5.176;2022-12-07T10:53:47;7.20;99.90
19941;DHT22;10132;50.864;5.176;2022-12-07T10:56:21;7.30;99.90
19941;DHT22;10132;50.864;5.176;2022-12-07T10:58:38;7.30;99.90
19941;DHT22;10132;50.864;5.176;2022-12-07T11:00:53;7.30;99.90
19941;DHT22;10132;50.864;5.176;2022-12-07T11:05:27;6.90;99.90
19941;DHT22;10132;50.864;5.176;2022-12-07T11:07:42;6.80;99.90
19941;DHT22;10132;50.864;5.176;2022-12-07T11:09:52;7.00;99.90
19941;DHT22;10132;50.864;5.176;2022-12-07T11:12:05;7.10;99.90
19941;DHT22;10132;50.864;5.176;2022-12-07T11:14:16;7.10;99.90
19941;DHT22;10132;50.864;5.176;2022-12-07T11:16:48;7.20;99.90
19941;DHT22;10132;50.864;5.176;2022-12-07T11:18:59;7.00;99.90
19941;DHT22;10132;50.864;5.176;2022-12-07T11:21:07;7.10;99.90
19941;DHT22;10132;50.864;5.176;2022-12-07T11:23:18;7.10;99.90
19941;DHT22;10132;50.864;5.176;2022-12-07T11:25:26;7.00;99.90
19941;DHT22;10132;50.864;5.176;2022-12-07T11:27:35;6.80;99.90
19941;DHT22;10132;50.864;5.176;2022-12-07T11:30:06;7.00;99.90
19941;DHT22;10132;50.864;5.176;2022-12-07T11:32:14;7.20;99.90
19941;DHT22;10132;50.864;5.176;2022-12-07T11:34:25;7.10;99.90
19941;DHT22;10132;50.864;5.176;2022-12-07T11:36:36;7.20;99.90
19941;DHT22;10132;50.864;5.176;2022-12-07T11:38:44;7.00;99.90
19941;DHT22;10132;50.864;5.176;2022-12-07T11:40:49;7.00;99.90
19941;DHT22;10132;50.864;5.176;2022-12-07T11:42:55;7.00;99.90
19941;DHT22;10132;50.864;5.176;2022-12-07T11:45:10;7.00;99.90
19941;DHT22;10132;50.864;5.176;2022-12-07T11:47:18;7.10;99.90
19941;DHT22;10132;50.864;5.176;2022-12-07T11:49:31;7.10;99.90
19941;DHT22;10132;50.864;5.176;2022-12-07T11:51:39;7.20;99.90
19941;DHT22;10132;50.864;5.176;2022-12-07T11:53:46;7.20;99.90
19941;DHT22;10132;50.864;5.176;2022-12-07T11:55:54;7.20;99.90
19941;DHT22;10132;50.864;5.176;2022-12-07T11:58:03;7.10;99.90
19941;DHT22;10132;50.864;5.176;2022-12-07T12:00:14;7.10;99.90
19941;DHT22;10132;50.864;5.176;2022-12-07T12:02:19;7.10;99.90
19941;DHT22;10132;50.864;5.176;2022-12-07T12:04:32;7.50;99.90
19941;DHT22;10132;50.864;5.176;2022-12-07T12:06:34;7.70;99.90
19941;DHT22;10132;50.864;5.176;2022-12-07T12:08:39;7.60;99.90
19941;DHT22;10132;50.864;5.176;2022-12-07T12:10:54;7.60;99.90
19941;DHT22;10132;50.864;5.176;2022-12-07T12:13:14;7.60;99.90
19941;DHT22;10132;50.864;5.176;2022-12-07T12:15:42;7.60;99.90
19941;DHT22;10132;50.864;5.176;2022-12-07T12:18:00;7.50;99.90
19941;DHT22;10132;50.864;5.176;2022-12-07T12:20:14;7.60;99.90
19941;DHT22;10132;50.864;5.176;2022-12-07T12:22:20;7.60;99.90
19941;DHT22;10132;50.864;5.176;2022-12-07T12:24:25;8.00;99.90
19941;DHT22;10132;50.864;5.176;2022-12-07T12:26:30;8.10;99.90
19941;DHT22;10132;50.864;5.176;2022-12-07T12:28:39;8.30;99.90
19941;DHT22;10132;50.864;5.176;2022-12-07T12:30:43;8.40;99.90
19941;DHT22;10132;50.864;5.176;2022-12-07T12:32:45;8.40;99.90
19941;DHT22;10132;50.864;5.176;2022-12-07T12:35:03;8.40;99.90
19941;DHT22;10132;50.864;5.176;2022-12-07T12:37:44;8.40;99.90
19941;DHT22;10132;50.864;5.176;2022-12-07T12:42:43;8.40;99.90
19941;DHT22;10132;50.864;5.176;2022-12-07T12:45:19;8.30;99.90
19941;DHT22;10132;50.864;5.176;2022-12-07T12:47:51;8.10;99.90
19941;DHT22;10132;50.864;5.176;2022-12-07T12:50:15;8.10;99.90
19941;DHT22;10132;50.864;5.176;2022-12-07T12:52:52;8.00;99.90
19941;DHT22;10132;50.864;5.176;2022-12-07T12:54:59;7.90;99.90
19941;DHT22;10132;50.864;5.176;2022-12-07T12:57:05;7.70;99.90
19941;DHT22;10132;50.864;5.176;2022-12-07T12:59:23;7.70;99.90
19941;DHT22;10132;50.864;5.176;2022-12-07T13:01:42;7.40;99.90
19941;DHT22;10132;50.864;5.176;2022-12-07T13:03:53;7.40;99.90
19941;DHT22;10132;50.864;5.176;2022-12-07T13:06:20;7.40;99.90
19941;DHT22;10132;50.864;5.176;2022-12-07T13:08:34;7.40;99.90
19941;DHT22;10132;50.864;5.176;2022-12-07T13:10:42;7.50;99.90
19941;DHT22;10132;50.864;5.176;2022-12-07T13:12:55;7.60;99.90
19941;DHT22;10132;50.864;5.176;2022-12-07T13:14:58;7.60;99.90
19941;DHT22;10132;50.864;5.176;2022-12-07T13:17:01;7.80;99.90
19941;DHT22;10132;50.864;5.176;2022-12-07T13:21:59;7.70;99.90
19941;DHT22;10132;50.864;5.176;2022-12-07T13:24:06;7.80;99.90
19941;DHT22;10132;50.864;5.176;2022-12-07T13:26:17;7.90;99.90
19941;DHT22;10132;50.864;5.176;2022-12-07T13:28:20;7.90;99.90
19941;DHT22;10132;50.864;5.176;2022-12-07T13:30:23;7.90;99.90
19941;DHT22;10132;50.864;5.176;2022-12-07T13:32:26;8.00;99.90
19941;DHT22;10132;50.864;5.176;2022-12-07T13:34:32;7.90;99.90
19941;DHT22;10132;50.864;5.176;2022-12-07T13:36:37;8.10;99.90